Time;durP1;ratioP1;P1;durP2;ratioP2;P2;SDS_P1;SDS_P2;PMS_P1;PMS_P2;Temp;Humidity;BMP_temperature;BMP_pressure;BME280_temperature;BME280_humidity;BME280_pressure;Samples;Min_cycle;Max_cycle;Signal;HPM_P1;HPM_P2
2022/03/30 00:01:33;;;;;;;33.03;17.50;;;12.70;87.40;;;;;;5064477;28;21044;-50
2022/03/30 00:04:01;;;;;;;35.10;17.40;;;12.60;87.30;;;;;;5063576;28;20538;-50
2022/03/30 00:06:28;;;;;;;51.53;18.77;;;12.70;87.50;;;;;;5064693;28;20498;-50
2022/03/30 00:08:55;;;;;;;27.10;18.10;;;12.70;88.40;;;;;;5063769;28;20481;-50
2022/03/30 00:11:22;;;;;;;28.87;17.47;;;12.60;89.60;;;;;;5063734;28;20957;-50
2022/03/30 00:13:49;;;;;;;33.17;18.80;;;12.40;90.00;;;;;;5063578;28;20469;-50
2022/03/30 00:16:15;;;;;;;26.40;17.03;;;12.50;90.00;;;;;;5063863;28;20520;-50
2022/03/30 00:18:42;;;;;;;29.73;18.93;;;12.50;90.00;;;;;;5062991;28;20497;-50
2022/03/30 00:21:10;;;;;;;33.03;18.50;;;12.60;88.90;;;;;;5062338;28;20999;-50
2022/03/30 00:23:37;;;;;;;29.97;19.77;;;12.60;89.20;;;;;;5063422;28;20489;-50
2022/03/30 00:26:04;;;;;;;34.53;20.90;;;12.50;89.50;;;;;;5063456;28;20906;-50
2022/03/30 00:28:31;;;;;;;39.57;19.87;;;12.20;90.50;;;;;;5063122;28;20610;-50
2022/03/30 00:30:57;;;;;;;31.53;18.27;;;12.20;90.70;;;;;;5064174;28;20901;-50
2022/03/30 00:33:25;;;;;;;29.43;19.07;;;12.20;90.70;;;;;;5062448;28;20479;-50
2022/03/30 00:35:51;;;;;;;40.33;20.80;;;12.10;90.80;;;;;;5062869;28;20492;-50
2022/03/30 00:38:19;;;;;;;32.30;19.43;;;12.20;90.30;;;;;;5061708;28;20983;-50
2022/03/30 00:40:46;;;;;;;40.90;18.80;;;12.30;90.30;;;;;;5063906;28;20472;-49
2022/03/30 00:43:13;;;;;;;35.03;19.40;;;12.40;89.90;;;;;;5063609;28;20478;-49
2022/03/30 00:45:40;;;;;;;24.30;17.60;;;12.50;89.50;;;;;;5062467;28;20511;-50
2022/03/30 00:48:08;;;;;;;28.03;18.63;;;12.50;89.20;;;;;;5062134;28;20996;-50
2022/03/30 00:50:35;;;;;;;36.90;19.90;;;12.60;89.70;;;;;;5062734;28;20482;-50
2022/03/30 00:53:01;;;;;;;30.70;17.57;;;12.60;89.60;;;;;;5067351;28;20530;-49
2022/03/30 00:55:30;;;;;;;37.57;19.40;;;12.60;88.90;;;;;;5057443;28;21385;-50
2022/03/30 00:57:58;;;;;;;28.30;18.80;;;12.70;88.80;;;;;;5062815;28;20481;-51
2022/03/30 01:00:25;;;;;;;32.17;17.83;;;12.60;90.00;;;;;;5063202;28;20974;-50
2022/03/30 01:02:52;;;;;;;31.03;18.40;;;12.50;90.20;;;;;;5036060;28;20529;-50
2022/03/30 01:05:19;;;;;;;29.57;16.50;;;12.30;90.60;;;;;;5061639;28;20484;-51
2022/03/30 01:07:46;;;;;;;32.10;17.60;;;12.30;90.00;;;;;;5063053;28;20546;-51
2022/03/30 01:10:14;;;;;;;26.73;18.40;;;12.40;89.90;;;;;;5062087;28;20579;-49
2022/03/30 01:12:43;;;;;;;41.13;19.00;;;12.40;90.10;;;;;;5063441;28;20535;-50
2022/03/30 01:15:12;;;;;;;25.60;18.00;;;12.40;90.00;;;;;;5059070;28;20879;-50
2022/03/30 01:17:39;;;;;;;35.83;18.87;;;12.40;90.30;;;;;;5062724;28;20509;-49
2022/03/30 01:20:08;;;;;;;31.40;17.80;;;12.40;90.20;;;;;;5065900;28;20483;-50
2022/03/30 01:22:36;;;;;;;28.73;18.60;;;12.40;90.20;;;;;;5063389;28;20489;-50
2022/03/30 01:25:04;;;;;;;54.67;20.33;;;12.40;90.10;;;;;;5061807;28;21053;-50
2022/03/30 01:27:31;;;;;;;24.67;18.67;;;12.50;89.70;;;;;;5063625;28;20535;-50
2022/03/30 01:32:45;;;;;;;33.50;19.00;;;12.50;88.50;;;;;;5063286;28;20586;-49
2022/03/30 01:35:11;;;;;;;26.00;19.00;;;12.60;89.10;;;;;;5061817;28;21096;-52
2022/03/30 01:37:39;;;;;;;28.10;18.60;;;12.50;89.20;;;;;;5062125;28;20482;-49
2022/03/30 01:40:08;;;;;;;35.90;19.90;;;12.60;89.20;;;;;;5061823;28;20989;-49
2022/03/30 01:42:35;;;;;;;33.80;19.13;;;12.50;89.50;;;;;;5060551;28;20561;-49
2022/03/30 01:45:03;;;;;;;28.03;18.57;;;12.50;89.40;;;;;;5061552;28;21180;-49
2022/03/30 01:47:30;;;;;;;32.07;18.53;;;12.50;89.30;;;;;;5061840;28;20499;-50
2022/03/30 01:49:57;;;;;;;37.63;18.37;;;12.40;89.40;;;;;;5066061;28;20552;-49
2022/03/30 01:52:24;;;;;;;49.53;19.57;;;12.40;89.70;;;;;;5062122;28;20560;-49
2022/03/30 01:54:52;;;;;;;32.93;19.30;;;12.40;89.80;;;;;;5056814;28;20496;-49
2022/03/30 01:57:19;;;;;;;31.40;20.37;;;12.30;89.90;;;;;;5061915;28;20527;-50
2022/03/30 01:59:48;;;;;;;36.97;21.30;;;12.40;89.90;;;;;;5062718;28;20953;-50
2022/03/30 02:02:15;;;;;;;34.10;19.47;;;12.40;90.00;;;;;;5046338;28;20494;-49
2022/03/30 02:04:43;;;;;;;29.17;20.87;;;12.30;90.00;;;;;;5053379;28;20816;-49
2022/03/30 02:07:10;;;;;;;38.77;20.60;;;12.40;89.40;;;;;;5050246;28;21307;-49
2022/03/30 02:09:37;;;;;;;31.30;18.53;;;12.40;89.20;;;;;;5047503;28;20487;-49
2022/03/30 02:12:08;;;;;;;28.00;19.27;;;12.40;89.90;;;;;;5055287;28;21441;-49
2022/03/30 02:14:35;;;;;;;29.03;18.30;;;12.10;90.90;;;;;;5054768;28;20886;-50
2022/03/30 02:17:02;;;;;;;26.67;19.30;;;12.10;90.60;;;;;;5061399;28;20481;-49
2022/03/30 02:19:28;;;;;;;29.10;18.70;;;12.00;90.50;;;;;;5062428;28;20810;-50
2022/03/30 02:21:55;;;;;;;38.10;20.27;;;12.00;90.70;;;;;;5062357;28;20984;-49
2022/03/30 02:24:22;;;;;;;31.03;18.37;;;11.80;91.00;;;;;;5058545;28;20512;-49
2022/03/30 02:26:49;;;;;;;26.00;18.23;;;11.80;91.00;;;;;;5059416;28;20835;-49
2022/03/30 02:29:17;;;;;;;35.80;18.50;;;11.70;90.70;;;;;;5043640;28;20480;-50
2022/03/30 02:31:44;;;;;;;35.20;22.30;;;11.70;91.30;;;;;;5061970;28;20574;-49
2022/03/30 02:34:12;;;;;;;38.43;19.37;;;11.50;91.60;;;;;;5060692;28;20515;-50
2022/03/30 02:36:40;;;;;;;32.43;19.60;;;11.20;91.70;;;;;;5061430;28;20492;-49
2022/03/30 02:39:07;;;;;;;29.77;19.20;;;11.30;91.40;;;;;;5045247;28;20491;-50
2022/03/30 02:41:34;;;;;;;31.37;21.87;;;11.40;91.30;;;;;;5061519;28;21001;-49
2022/03/30 02:44:01;;;;;;;30.97;18.07;;;11.20;91.60;;;;;;5060163;28;20472;-49
2022/03/30 02:46:29;;;;;;;26.87;18.30;;;11.30;91.50;;;;;;5061485;28;20958;-51
2022/03/30 02:48:56;;;;;;;35.33;19.27;;;;;;;;;;5058287;28;20482;-49
2022/03/30 02:51:25;;;;;;;36.20;21.67;;;11.30;91.90;;;;;;5059279;28;20861;-49
2022/03/30 02:53:52;;;;;;;37.93;20.20;;;11.20;92.10;;;;;;5056510;28;20480;-49
2022/03/30 02:56:19;;;;;;;31.57;19.80;;;11.10;92.10;;;;;;5057424;28;20484;-49
2022/03/30 02:58:45;;;;;;;30.60;19.93;;;11.10;92.50;;;;;;5064253;28;21191;-49
2022/03/30 03:01:12;;;;;;;41.40;20.30;;;11.00;92.70;;;;;;5060725;28;20494;-49
2022/03/30 03:03:40;;;;;;;31.53;20.03;;;11.00;92.80;;;;;;5047483;28;20485;-49
2022/03/30 03:06:07;;;;;;;36.07;19.73;;;11.00;92.50;;;;;;5061301;28;20574;-49
2022/03/30 03:08:34;;;;;;;29.37;19.33;;;11.10;92.40;;;;;;5049345;28;20484;-48
2022/03/30 03:11:01;;;;;;;23.53;17.60;;;11.20;92.00;;;;;;5035268;28;20481;-49
2022/03/30 03:13:27;;;;;;;32.37;18.63;;;11.20;91.80;;;;;;5058268;28;20482;-48
2022/03/30 03:15:54;;;;;;;32.80;19.53;;;11.30;91.80;;;;;;5038503;28;20885;-49
2022/03/30 03:18:21;;;;;;;28.57;19.50;;;;;;;;;;5046032;28;20485;-49
2022/03/30 03:20:50;;;;;;;29.33;18.83;;;11.30;91.60;;;;;;5044148;28;20482;-49
2022/03/30 03:23:17;;;;;;;33.87;20.60;;;11.40;91.50;;;;;;5017268;28;20488;-49
2022/03/30 03:25:45;;;;;;;37.57;19.20;;;11.40;91.50;;;;;;5046237;28;20478;-49
2022/03/30 03:28:13;;;;;;;31.20;19.70;;;11.40;91.30;;;;;;5037275;28;20497;-49
2022/03/30 03:30:41;;;;;;;30.93;20.20;;;11.40;91.60;;;;;;5019045;28;20887;-49
2022/03/30 03:33:09;;;;;;;30.40;20.10;;;11.40;91.70;;;;;;5033197;28;20499;-49
2022/03/30 03:35:36;;;;;;;32.83;21.33;;;11.50;91.50;;;;;;5031283;28;21123;-49
2022/03/30 03:38:05;;;;;;;27.97;20.10;;;11.50;91.10;;;;;;5017799;28;20488;-49
2022/03/30 03:40:32;;;;;;;27.97;19.50;;;11.60;91.10;;;;;;5061673;28;20489;-50
2022/03/30 03:43:00;;;;;;;35.40;21.10;;;11.60;91.20;;;;;;5056275;28;20495;-49
2022/03/30 03:45:27;;;;;;;30.50;19.13;;;11.70;91.10;;;;;;5049047;28;20495;-50
2022/03/30 03:47:54;;;;;;;43.00;20.70;;;11.70;91.40;;;;;;5063616;28;20481;-49
2022/03/30 03:50:21;;;;;;;32.73;20.50;;;11.70;91.20;;;;;;5062281;28;20503;-49
2022/03/30 03:52:48;;;;;;;33.43;19.90;;;11.70;91.00;;;;;;5063624;28;20563;-50
2022/03/30 03:55:16;;;;;;;56.50;22.33;;;11.70;91.00;;;;;;5059705;28;20537;-49
2022/03/30 03:57:43;;;;;;;30.77;19.63;;;11.70;91.20;;;;;;5059547;28;20532;-49
2022/03/30 04:00:13;;;;;;;32.20;19.03;;;11.70;90.70;;;;;;5062754;28;20481;-50
2022/03/30 04:02:40;;;;;;;29.77;19.47;;;11.60;91.40;;;;;;5063314;28;20480;-50
2022/03/30 04:05:08;;;;;;;35.67;19.67;;;11.60;91.10;;;;;;5063528;28;20501;-50
2022/03/30 04:07:36;;;;;;;26.10;19.07;;;11.60;91.60;;;;;;5064827;28;20476;-54
2022/03/30 04:10:03;;;;;;;37.60;21.87;;;11.60;91.40;;;;;;5064471;28;20585;-49
2022/03/30 04:12:32;;;;;;;31.13;19.00;;;11.60;91.20;;;;;;5064180;28;20547;-50
2022/03/30 04:14:58;;;;;;;38.47;21.43;;;11.70;91.10;;;;;;5064118;28;20488;-49
2022/03/30 04:17:25;;;;;;;44.10;22.20;;;11.60;91.30;;;;;;5063620;28;20489;-49
2022/03/30 04:19:52;;;;;;;30.47;21.23;;;11.60;91.40;;;;;;5064537;28;20486;-48
2022/03/30 04:22:19;;;;;;;30.23;22.90;;;11.60;91.30;;;;;;5062601;28;20701;-48
2022/03/30 04:24:45;;;;;;;35.77;19.93;;;11.70;91.30;;;;;;5063343;28;20584;-48
2022/03/30 04:27:12;;;;;;;35.90;19.70;;;11.70;91.30;;;;;;5063375;28;21197;-49
2022/03/30 04:29:41;;;;;;;27.23;18.30;;;11.60;91.30;;;;;;5048036;28;21137;-49
2022/03/30 04:32:08;;;;;;;32.33;19.87;;;11.60;91.20;;;;;;5062953;28;20571;-49
2022/03/30 04:34:35;;;;;;;31.73;18.93;;;11.60;91.10;;;;;;5063312;28;20480;-48
2022/03/30 04:37:02;;;;;;;26.10;17.87;;;11.60;91.10;;;;;;5062843;28;20469;-49
2022/03/30 04:39:29;;;;;;;40.23;21.10;;;11.40;91.60;;;;;;5061851;28;20482;-50
2022/03/30 04:41:56;;;;;;;35.23;22.13;;;11.40;91.80;;;;;;5064178;28;20616;-49
2022/03/30 04:44:25;;;;;;;40.77;20.57;;;11.30;92.00;;;;;;5062171;28;20486;-49
2022/03/30 04:46:53;;;;;;;27.27;19.60;;;11.40;91.70;;;;;;5062810;28;20477;-48
2022/03/30 04:49:21;;;;;;;30.17;18.07;;;11.40;91.60;;;;;;5062315;28;20562;-48
2022/03/30 04:51:48;;;;;;;31.60;20.00;;;;;;;;;;5066968;28;20469;-49
2022/03/30 04:54:15;;;;;;;33.07;20.80;;;11.60;91.50;;;;;;5059954;28;20485;-49
2022/03/30 04:56:42;;;;;;;27.73;21.10;;;11.60;91.50;;;;;;5063252;28;20578;-48
2022/03/30 04:59:09;;;;;;;33.50;20.33;;;11.60;91.40;;;;;;5060423;28;20488;-48
2022/03/30 05:01:37;;;;;;;32.13;20.23;;;11.60;91.40;;;;;;5063562;28;20494;-48
2022/03/30 05:04:06;;;;;;;28.30;19.60;;;11.60;91.30;;;;;;5062471;28;20480;-48
2022/03/30 05:06:32;;;;;;;29.30;19.97;;;11.70;91.20;;;;;;5067205;28;21088;-49
2022/03/30 05:08:59;;;;;;;31.70;18.83;;;11.70;91.10;;;;;;5062850;28;20516;-49
2022/03/30 05:11:26;;;;;;;33.20;21.53;;;11.70;91.20;;;;;;5061784;28;20485;-49
2022/03/30 05:13:52;;;;;;;30.23;20.17;;;11.70;91.30;;;;;;5062263;28;20993;-49
2022/03/30 05:16:19;;;;;;;34.20;21.10;;;11.70;91.70;;;;;;5061433;28;20520;-49
2022/03/30 05:18:46;;;;;;;37.37;21.80;;;11.70;91.50;;;;;;5061991;28;20480;-49
2022/03/30 05:21:14;;;;;;;31.90;21.97;;;11.80;91.30;;;;;;5061957;28;20834;-49
2022/03/30 05:23:41;;;;;;;26.33;19.10;;;11.80;91.40;;;;;;5061856;28;20496;-49
2022/03/30 05:26:07;;;;;;;29.77;19.37;;;11.80;91.50;;;;;;5065429;28;20484;-54
2022/03/30 05:28:38;;;;;;;31.90;21.10;;;11.70;91.80;;;;;;5063526;28;20837;-48
2022/03/30 05:31:05;;;;;;;34.07;21.10;;;11.70;91.80;;;;;;5061886;28;20473;-48
2022/03/30 05:33:31;;;;;;;26.37;19.70;;;11.70;91.80;;;;;;5048873;28;20487;-49
2022/03/30 05:35:58;;;;;;;31.80;19.80;;;11.80;91.50;;;;;;5060205;28;20483;-48
2022/03/30 05:38:27;;;;;;;30.83;21.83;;;11.80;91.30;;;;;;5061504;28;20840;-48
2022/03/30 05:40:54;;;;;;;30.63;20.10;;;11.80;91.30;;;;;;5062376;28;20482;-48
2022/03/30 05:43:21;;;;;;;47.60;23.07;;;11.90;91.30;;;;;;5066459;28;21202;-49
2022/03/30 05:45:48;;;;;;;37.20;22.20;;;11.90;91.20;;;;;;5061138;28;20513;-48
2022/03/30 05:48:15;;;;;;;29.97;21.33;;;12.00;91.30;;;;;;5062534;28;20497;-48
2022/03/30 05:50:42;;;;;;;48.83;23.37;;;12.00;91.10;;;;;;5061176;28;20979;-48
2022/03/30 05:53:09;;;;;;;37.70;23.47;;;11.90;91.30;;;;;;5061383;28;20487;-49
2022/03/30 05:55:37;;;;;;;29.00;21.10;;;11.90;91.50;;;;;;5062912;28;20764;-49
2022/03/30 05:58:04;;;;;;;31.53;22.90;;;12.00;91.40;;;;;;5060367;28;20965;-48
2022/03/30 06:00:31;;;;;;;35.93;21.70;;;12.00;91.10;;;;;;5060903;28;21035;-49
2022/03/30 06:02:58;;;;;;;39.23;23.53;;;12.00;91.20;;;;;;5062361;28;20639;-48
2022/03/30 06:05:25;;;;;;;35.43;24.23;;;12.00;91.20;;;;;;5057845;28;20475;-48
2022/03/30 06:07:52;;;;;;;46.37;21.57;;;12.00;91.40;;;;;;5061377;28;20485;-48
2022/03/30 06:10:20;;;;;;;26.87;20.10;;;12.00;91.40;;;;;;5060736;28;20497;-48
2022/03/30 06:12:48;;;;;;;35.53;23.67;;;12.00;91.60;;;;;;5062040;28;20480;-47
2022/03/30 06:15:15;;;;;;;41.73;22.53;;;12.00;91.80;;;;;;5059186;28;20517;-49
2022/03/30 06:17:42;;;;;;;34.73;22.53;;;12.10;91.80;;;;;;5062053;28;21081;-49
2022/03/30 06:20:11;;;;;;;45.97;27.67;;;12.10;91.50;;;;;;5060070;28;20484;-49
2022/03/30 06:22:39;;;;;;;41.87;26.70;;;12.10;91.40;;;;;;5062608;28;20573;-49
2022/03/30 06:25:07;;;;;;;34.67;25.57;;;12.20;91.60;;;;;;5031248;28;20991;-49
2022/03/30 06:27:34;;;;;;;44.73;25.50;;;12.20;91.50;;;;;;5061557;28;20564;-49
2022/03/30 06:30:03;;;;;;;31.07;20.60;;;12.20;91.70;;;;;;5061179;28;20947;-49
2022/03/30 06:32:30;;;;;;;35.90;21.43;;;12.10;91.70;;;;;;5061702;28;20488;-49
2022/03/30 06:34:56;;;;;;;41.53;19.17;;;12.00;92.20;;;;;;5061772;28;20514;-49
2022/03/30 06:37:24;;;;;;;41.50;21.83;;;12.00;92.40;;;;;;5060985;28;20484;-49
2022/03/30 06:39:50;;;;;;;34.33;22.30;;;11.90;92.30;;;;;;5060992;28;20566;-48
2022/03/30 06:42:17;;;;;;;46.87;23.57;;;11.90;92.40;;;;;;5059998;28;20986;-50
2022/03/30 06:44:44;;;;;;;29.40;20.70;;;11.90;92.60;;;;;;5060359;28;20499;-49
2022/03/30 06:47:13;;;;;;;45.70;24.17;;;11.80;92.90;;;;;;5060407;28;20488;-49
2022/03/30 06:49:39;;;;;;;48.20;27.77;;;11.80;93.30;;;;;;5061546;28;20485;-49
2022/03/30 06:52:07;;;;;;;43.70;27.90;;;11.80;93.40;;;;;;5060478;28;20481;-49
2022/03/30 06:54:35;;;;;;;56.83;28.37;;;11.70;93.40;;;;;;5060699;28;20586;-50
2022/03/30 06:57:03;;;;;;;49.20;29.23;;;11.80;93.60;;;;;;5060518;28;20595;-48
2022/03/30 06:59:30;;;;;;;47.40;29.97;;;11.80;93.40;;;;;;5061400;28;20982;-49
2022/03/30 07:01:58;;;;;;;47.03;27.93;;;11.80;93.50;;;;;;5064910;28;20577;-48
2022/03/30 07:04:26;;;;;;;55.50;29.50;;;11.80;93.60;;;;;;5059764;28;20837;-48
2022/03/30 07:12:21;;;;;;;47.10;27.20;;;11.70;93.70;;;;;;5059532;28;21527;-49
2022/03/30 07:14:49;;;;;;;53.50;27.47;;;11.70;93.80;;;;;;5049389;28;20490;-49
2022/03/30 07:17:15;;;;;;;53.00;27.60;;;11.60;93.70;;;;;;5059817;28;20520;-49
2022/03/30 07:19:44;;;;;;;42.17;24.80;;;11.60;93.60;;;;;;5060183;28;20473;-50
2022/03/30 07:22:13;;;;;;;51.20;26.73;;;11.50;93.40;;;;;;5063770;28;20492;-49
2022/03/30 07:24:40;;;;;;;43.60;23.87;;;11.40;93.30;;;;;;5033234;28;20577;-49
2022/03/30 07:27:07;;;;;;;50.30;25.10;;;11.40;93.20;;;;;;5060795;28;20491;-49
2022/03/30 07:29:34;;;;;;;44.60;24.03;;;11.40;93.20;;;;;;5057885;28;20485;-48
2022/03/30 07:32:01;;;;;;;45.97;26.90;;;11.40;93.30;;;;;;5061474;28;20477;-48
2022/03/30 07:34:27;;;;;;;39.53;23.43;;;11.40;93.30;;;;;;5049902;28;20496;-48
2022/03/30 16:09:52;;;;;;;31.93;20.60;;;12.40;89.50;;;;;;5023312;28;20474;-48
2022/03/30 16:12:20;;;;;;;30.23;17.57;;;12.40;89.30;;;;;;5063450;28;21050;-49
2022/03/30 16:14:49;;;;;;;29.63;18.00;;;12.40;89.20;;;;;;5063143;28;20490;-49
2022/03/30 16:17:17;;;;;;;32.53;20.50;;;12.40;89.70;;;;;;5062753;28;20491;-49
2022/03/30 16:19:47;;;;;;;41.13;22.53;;;12.30;89.40;;;;;;5066706;28;20892;-48
2022/03/30 16:22:14;;;;;;;28.87;18.70;;;12.30;89.60;;;;;;5066239;28;20484;-48
2022/03/30 16:24:42;;;;;;;30.63;19.67;;;;;;;;;;5055151;28;20501;-49
2022/03/30 16:27:11;;;;;;;37.80;18.13;;;12.30;89.60;;;;;;5021841;28;20488;-48
2022/03/30 16:29:38;;;;;;;31.20;19.53;;;12.30;89.30;;;;;;5064736;28;20484;-49
2022/03/30 16:32:07;;;;;;;32.00;19.60;;;12.40;89.50;;;;;;5063459;28;20548;-49
2022/03/30 16:34:35;;;;;;;42.10;19.73;;;12.40;89.50;;;;;;5064455;28;20981;-48
2022/03/30 16:37:03;;;;;;;34.40;20.00;;;12.40;90.00;;;;;;5066604;28;21063;-48
2022/03/30 16:39:31;;;;;;;35.97;21.97;;;12.40;89.60;;;;;;5068255;28;20491;-48
2022/03/30 16:41:59;;;;;;;32.03;19.30;;;12.40;90.00;;;;;;5067366;28;20479;-48
2022/03/30 16:44:28;;;;;;;30.03;19.10;;;12.40;90.00;;;;;;5066220;28;20986;-48
2022/03/30 16:46:56;;;;;;;35.30;18.63;;;12.50;89.90;;;;;;5066459;28;20481;-48
2022/03/30 16:49:23;;;;;;;33.83;20.17;;;12.50;89.30;;;;;;5067578;28;20562;-49
2022/03/30 16:51:50;;;;;;;32.50;21.23;;;12.50;89.40;;;;;;5065231;28;20480;-48
2022/03/30 16:54:19;;;;;;;46.17;21.23;;;12.60;89.60;;;;;;5056167;28;20788;-49
2022/03/30 16:56:47;;;;;;;27.13;17.80;;;12.50;89.20;;;;;;5066970;28;20538;-48
2022/03/30 16:59:14;;;;;;;30.10;20.10;;;12.50;88.90;;;;;;5067047;28;20483;-49
2022/03/30 17:01:43;;;;;;;34.83;19.97;;;12.40;89.30;;;;;;5065359;28;20532;-49
2022/03/30 17:04:10;;;;;;;34.20;19.37;;;12.50;89.30;;;;;;5064919;28;20815;-49
2022/03/30 17:06:37;;;;;;;32.07;20.57;;;12.50;89.10;;;;;;5069485;28;20552;-49
2022/03/30 17:11:50;;;;;;;33.07;20.60;;;12.50;89.50;;;;;;5039816;28;20510;-49
2022/03/30 17:14:17;;;;;;;33.07;20.23;;;12.50;88.70;;;;;;5049567;28;20478;-49
2022/03/30 17:16:48;;;;;;;32.17;21.30;;;12.50;88.30;;;;;;5054040;28;20482;-48
2022/03/30 17:19:15;;;;;;;33.70;20.10;;;12.50;88.50;;;;;;5050669;28;20478;-48
2022/03/30 17:21:42;;;;;;;42.17;21.80;;;12.40;88.80;;;;;;5047795;28;20481;-49
2022/03/30 17:24:10;;;;;;;29.80;18.87;;;12.50;89.00;;;;;;5047191;28;20544;-49
2022/03/30 17:26:37;;;;;;;26.30;17.43;;;12.40;88.30;;;;;;5052622;28;20478;-49
2022/03/30 17:29:06;;;;;;;37.40;18.70;;;12.40;88.10;;;;;;5051790;28;20504;-50
2022/03/30 17:31:34;;;;;;;40.60;21.03;;;12.30;88.10;;;;;;5051760;28;20482;-49
2022/03/30 17:34:04;;;;;;;25.93;17.97;;;12.30;88.60;;;;;;5051244;28;20550;-48
2022/03/30 17:36:34;;;;;;;36.20;19.70;;;12.30;88.60;;;;;;5051443;28;20489;-48
2022/03/30 17:39:03;;;;;;;32.83;20.20;;;12.30;88.70;;;;;;5052383;28;20539;-48
2022/03/30 17:41:30;;;;;;;40.77;21.50;;;12.30;88.80;;;;;;5050843;28;20493;-48
2022/03/30 17:44:02;;;;;;;35.47;19.80;;;12.30;88.70;;;;;;5049654;28;20472;-48
2022/03/30 17:46:30;;;;;;;34.73;21.10;;;12.30;88.40;;;;;;5049973;28;20969;-49
2022/03/30 17:51:53;;;;;;;31.90;19.00;;;12.30;88.40;;;;;;5048608;28;21045;-48
2022/03/30 17:54:22;;;;;;;40.93;21.97;;;12.30;88.40;;;;;;5037462;28;20483;-49
2022/03/30 17:56:50;;;;;;;30.00;19.07;;;12.30;88.30;;;;;;5050257;28;20479;-48
2022/03/30 17:59:20;;;;;;;33.30;20.07;;;12.40;88.50;;;;;;5048835;28;21079;-48
2022/03/30 18:01:49;;;;;;;29.60;19.40;;;12.40;88.50;;;;;;5000716;28;21348;-48
2022/03/30 18:04:17;;;;;;;32.10;19.50;;;12.30;88.40;;;;;;5043571;28;20483;-48
2022/03/30 18:06:45;;;;;;;30.90;18.33;;;12.40;88.30;;;;;;5049079;28;21050;-49
2022/03/30 18:09:12;;;;;;;30.90;18.57;;;12.30;88.00;;;;;;5048978;28;20480;-48
2022/03/30 18:11:40;;;;;;;27.23;18.97;;;12.30;88.00;;;;;;5050016;28;20480;-48
2022/03/30 18:14:08;;;;;;;32.23;20.10;;;12.40;88.20;;;;;;5049302;28;20489;-49
2022/03/30 18:16:35;;;;;;;32.70;20.37;;;12.40;88.20;;;;;;5050210;28;20514;-48
2022/03/30 18:19:02;;;;;;;33.20;20.10;;;12.40;88.20;;;;;;5048623;28;20491;-49
2022/03/30 18:21:29;;;;;;;36.50;20.37;;;12.40;88.30;;;;;;5049648;28;20484;-48
2022/03/30 18:23:58;;;;;;;32.57;21.20;;;12.40;88.20;;;;;;5048304;28;21366;-49
2022/03/30 18:26:25;;;;;;;30.63;19.30;;;12.40;88.10;;;;;;5037637;28;20971;-48
2022/03/30 18:28:52;;;;;;;38.50;20.40;;;12.40;88.20;;;;;;5050294;28;20487;-48
2022/03/30 18:31:19;;;;;;;33.00;20.60;;;12.40;88.30;;;;;;5020595;28;20470;-48
2022/03/30 18:33:46;;;;;;;31.47;19.90;;;12.40;88.40;;;;;;5049481;28;20484;-48
2022/03/30 18:36:14;;;;;;;42.07;23.80;;;12.30;88.40;;;;;;5049979;28;21006;-48
2022/03/30 18:38:42;;;;;;;34.07;20.73;;;12.30;88.70;;;;;;5023806;28;21103;-48
2022/03/30 18:41:11;;;;;;;39.83;20.50;;;12.30;88.60;;;;;;5050765;28;20505;-48
2022/03/30 18:43:38;;;;;;;40.13;20.70;;;12.30;89.00;;;;;;5046649;28;20481;-49
2022/03/30 18:46:06;;;;;;;33.90;21.60;;;12.30;88.70;;;;;;5049956;28;20472;-48
2022/03/30 18:48:33;;;;;;;41.17;21.40;;;12.30;88.40;;;;;;5050886;28;20475;-48
2022/03/30 18:51:04;;;;;;;38.77;21.07;;;12.20;88.50;;;;;;5050471;28;20568;-49
2022/03/30 18:53:31;;;;;;;43.47;22.30;;;12.20;88.40;;;;;;5048841;28;21013;-49
2022/03/30 18:55:58;;;;;;;34.27;21.20;;;12.20;88.80;;;;;;5050604;28;20477;-48
2022/03/30 18:58:27;;;;;;;38.00;24.43;;;12.20;88.50;;;;;;5048967;28;20484;-48
2022/03/30 19:00:55;;;;;;;31.70;19.73;;;12.20;88.30;;;;;;5048443;28;21308;-48
2022/03/30 19:03:26;;;;;;;32.43;20.40;;;12.30;88.00;;;;;;5049054;28;20532;-49
2022/03/30 19:05:54;;;;;;;33.57;20.87;;;12.20;87.80;;;;;;5047180;28;20481;-49
2022/03/30 19:08:21;;;;;;;32.30;20.23;;;12.20;88.00;;;;;;5049359;28;20483;-48
2022/03/30 19:10:48;;;;;;;50.83;22.33;;;12.10;88.60;;;;;;5045129;28;20585;-49
2022/03/30 19:13:18;;;;;;;28.30;18.67;;;12.00;88.90;;;;;;5042414;28;20912;-48
2022/03/30 19:15:48;;;;;;;29.63;19.73;;;11.90;89.20;;;;;;5047615;28;20482;-48
2022/03/30 19:18:17;;;;;;;38.73;20.90;;;11.80;89.60;;;;;;5045066;28;20512;-48
2022/03/30 19:20:46;;;;;;;40.27;22.60;;;11.70;89.70;;;;;;5048638;28;20540;-49
2022/03/30 19:23:14;;;;;;;31.97;21.47;;;11.70;89.80;;;;;;5047305;28;20482;-48
2022/03/30 19:25:44;;;;;;;38.17;20.73;;;11.70;89.70;;;;;;5035925;28;20484;-48
2022/03/30 19:28:12;;;;;;;40.27;23.20;;;11.70;89.70;;;;;;5047512;28;20507;-48
2022/03/30 19:30:39;;;;;;;39.20;23.13;;;11.80;89.30;;;;;;5050287;28;21050;-49
2022/03/30 19:33:08;;;;;;;34.47;20.27;;;11.80;89.30;;;;;;5050457;28;21073;-48
2022/03/30 19:35:37;;;;;;;33.10;21.63;;;11.80;89.10;;;;;;5052005;28;20777;-49
2022/03/30 19:38:04;;;;;;;33.77;21.30;;;11.90;89.10;;;;;;5052455;28;21319;-49
2022/03/30 19:40:31;;;;;;;33.60;20.90;;;11.90;89.10;;;;;;5054025;28;20477;-48
2022/03/30 19:42:58;;;;;;;31.03;21.30;;;11.90;89.00;;;;;;5052397;28;20583;-48
2022/03/30 19:45:26;;;;;;;32.07;20.57;;;11.70;90.00;;;;;;5051902;28;20482;-49
2022/03/30 19:47:53;;;;;;;37.50;21.00;;;11.60;90.20;;;;;;5053461;28;20464;-49
2022/03/30 19:50:22;;;;;;;31.37;20.87;;;11.40;90.20;;;;;;5053600;28;20925;-48
2022/03/30 19:52:51;;;;;;;31.43;21.87;;;11.40;90.10;;;;;;5037937;28;20572;-49
2022/03/30 19:55:20;;;;;;;32.20;20.10;;;11.50;90.10;;;;;;5047413;28;20557;-48
2022/03/30 19:57:48;;;;;;;29.70;20.30;;;11.50;90.00;;;;;;5050217;28;20551;-48
2022/03/30 20:00:17;;;;;;;37.23;20.80;;;11.60;89.80;;;;;;5050027;28;20495;-48
2022/03/30 20:02:44;;;;;;;33.23;21.00;;;11.60;89.70;;;;;;5039026;28;21022;-49
2022/03/30 20:05:12;;;;;;;36.80;22.67;;;11.60;89.90;;;;;;5049496;28;20926;-49
2022/03/30 20:07:40;;;;;;;47.43;20.70;;;11.50;90.00;;;;;;5051060;28;20861;-49
2022/03/30 20:10:08;;;;;;;33.93;21.57;;;11.60;90.10;;;;;;5050506;28;20750;-49
2022/03/30 20:12:35;;;;;;;35.27;21.47;;;11.50;90.00;;;;;;5051404;28;20973;-51
2022/03/30 20:15:03;;;;;;;39.20;21.50;;;11.60;90.00;;;;;;5050704;28;20480;-48
2022/03/30 20:17:35;;;;;;;37.43;20.53;;;11.60;90.00;;;;;;5050674;28;20476;-48
2022/03/30 20:20:05;;;;;;;32.57;19.37;;;11.60;90.10;;;;;;5049942;28;21046;-49
2022/03/30 20:22:32;;;;;;;31.10;19.43;;;11.50;90.10;;;;;;5035968;28;20822;-49
2022/03/30 20:25:01;;;;;;;31.00;19.30;;;11.50;90.00;;;;;;5040188;28;20491;-48
2022/03/30 20:27:28;;;;;;;31.00;19.13;;;11.50;89.90;;;;;;5035278;28;20914;-49
2022/03/30 20:29:55;;;;;;;29.93;19.53;;;11.50;89.80;;;;;;5047391;28;20523;-48
2022/03/30 20:32:23;;;;;;;37.37;23.20;;;11.50;89.50;;;;;;5029369;28;20913;-49
2022/03/30 20:34:51;;;;;;;38.90;21.77;;;11.50;89.60;;;;;;5029722;28;21010;-48
2022/03/30 20:37:18;;;;;;;35.57;22.40;;;11.40;90.00;;;;;;5046291;28;20490;-49
2022/03/30 20:39:45;;;;;;;40.80;22.57;;;11.30;89.70;;;;;;5036120;28;20475;-49
2022/03/30 20:42:14;;;;;;;53.43;25.57;;;11.30;89.80;;;;;;5035021;28;20799;-49
2022/03/30 20:44:41;;;;;;;43.20;23.20;;;11.30;89.90;;;;;;5021615;28;20485;-49
2022/03/30 20:47:12;;;;;;;37.77;22.07;;;11.30;90.00;;;;;;5033186;28;20701;-49
2022/03/30 20:49:40;;;;;;;44.93;22.70;;;11.30;90.00;;;;;;5038571;28;20470;-49
2022/03/30 20:52:12;;;;;;;41.60;25.53;;;11.30;90.00;;;;;;5051965;28;20469;-48
2022/03/30 20:54:40;;;;;;;42.10;22.90;;;11.30;90.00;;;;;;5044097;28;20592;-49
2022/03/30 20:57:07;;;;;;;33.70;21.83;;;11.30;90.00;;;;;;5033893;28;20578;-49
2022/03/30 20:59:38;;;;;;;37.47;21.87;;;11.30;89.70;;;;;;5030781;28;20671;-48
2022/03/30 21:02:09;;;;;;;33.37;22.47;;;11.20;89.90;;;;;;5038471;28;20552;-49
2022/03/30 21:04:36;;;;;;;39.90;22.17;;;11.10;90.00;;;;;;5031711;28;20979;-49
2022/03/30 21:07:03;;;;;;;32.97;21.70;;;11.00;90.10;;;;;;5049704;28;20480;-49
2022/03/30 21:09:30;;;;;;;52.53;23.00;;;10.90;90.30;;;;;;5037946;28;20489;-49
2022/03/30 21:11:59;;;;;;;33.67;21.47;;;10.90;90.30;;;;;;5049617;28;20494;-49
2022/03/30 21:14:29;;;;;;;34.70;20.80;;;10.80;90.40;;;;;;5050749;28;21171;-49
2022/03/30 21:17:00;;;;;;;39.83;21.47;;;10.70;90.60;;;;;;5042728;28;21367;-49